Time;durP1;ratioP1;P1;durP2;ratioP2;P2;SDS_P1;SDS_P2;PMS_P1;PMS_P2;Temp;Humidity;BMP_temperature;BMP_pressure;BME280_temperature;BME280_humidity;BME280_pressure;Samples;Min_cycle;Max_cycle;Signal;HPM_P1;HPM_P2
2024/03/08 00:00:32;;;;;;;0.00;0.00;;;;;;;;;;5009975;28;20057;-88
2024/03/08 00:02:58;;;;;;;0.10;0.10;;;;;;;;;;5011643;28;20044;-88
2024/03/08 00:05:24;;;;;;;0.03;0.03;;;;;;;;;;5011720;28;20117;-88
2024/03/08 00:07:50;;;;;;;0.10;0.10;;;;;;;;;;5009260;28;20041;-88
2024/03/08 00:10:16;;;;;;;0.10;0.10;;;;;;;;;;5008773;28;20026;-89
2024/03/08 00:12:44;;;;;;;0.10;0.10;;;1.70;99.90;;;;;;5011080;28;20025;-88
2024/03/08 00:15:10;;;;;;;0.10;0.10;;;;;;;;;;5007885;28;20030;-88
2024/03/08 00:17:38;;;;;;;0.05;0.05;;;;;;;;;;5011117;28;20085;-88
2024/03/08 00:20:08;;;;;;;0.00;0.00;;;1.70;99.90;;;;;;5010452;28;20038;-88
2024/03/08 00:22:34;;;;;;;;;;;1.70;99.90;;;;;;5004849;28;20041;-88
2024/03/08 00:25:00;;;;;;;0.10;0.10;;;;;;;;;;5001552;28;20040;-88
2024/03/08 00:27:26;;;;;;;0.10;0.10;;;;;;;;;;5008590;28;20478;-88
2024/03/08 00:29:52;;;;;;;0.00;0.00;;;;;;;;;;5003415;28;20025;-87
2024/03/08 00:32:18;;;;;;;0.05;0.05;;;;;;;;;;5009412;28;20392;-87
2024/03/08 00:34:44;;;;;;;0.10;0.10;;;;;;;;;;5010434;28;20079;-88
2024/03/08 00:37:10;;;;;;;0.10;0.10;;;;;;;;;;5008794;28;20092;-88
2024/03/08 00:39:36;;;;;;;0.00;0.00;;;;;;;;;;5009981;28;20496;-88
2024/03/08 00:42:01;;;;;;;0.08;0.08;;;;;;;;;;5008457;28;20031;-88
2024/03/08 00:44:29;;;;;;;0.03;0.03;;;;;;;;;;5009044;28;20041;-88
2024/03/08 00:46:55;;;;;;;0.10;0.10;;;;;;;;;;5005982;28;20034;-88
2024/03/08 00:49:22;;;;;;;0.00;0.00;;;;;;;;;;5009488;28;20477;-89
2024/03/08 00:51:48;;;;;;;0.10;0.10;;;;;;;;;;5009060;28;20439;-88
2024/03/08 00:54:16;;;;;;;0.03;0.03;;;;;;;;;;5010577;28;20033;-89
2024/03/08 00:56:42;;;;;;;0.10;0.10;;;;;;;;;;5005039;28;20045;-89
2024/03/08 00:59:08;;;;;;;0.10;0.10;;;;;;;;;;5006718;28;20034;-88
2024/03/08 01:01:34;;;;;;;0.00;0.00;;;;;;;;;;5007581;28;20400;-88
2024/03/08 01:04:00;;;;;;;0.00;0.00;;;;;;;;;;5006118;28;20032;-88
2024/03/08 01:06:26;;;;;;;0.00;0.00;;;;;;;;;;5010283;28;20096;-88
2024/03/08 01:08:52;;;;;;;0.10;0.10;;;;;;;;;;5005914;28;20060;-89
2024/03/08 01:11:18;;;;;;;0.05;0.05;;;;;;;;;;5007990;28;20505;-89
2024/03/08 01:13:47;;;;;;;0.10;0.10;;;;;;;;;;5005310;28;20084;-86
2024/03/08 01:16:13;;;;;;;0.10;0.10;;;;;;;;;;5005618;28;20049;-88
2024/03/08 01:18:39;;;;;;;0.00;0.00;;;;;;;;;;5006380;28;20026;-89
2024/03/08 01:21:05;;;;;;;0.10;0.10;;;;;;;;;;5006979;28;20607;-89
2024/03/08 01:23:31;;;;;;;0.00;0.00;;;;;;;;;;5009389;28;20093;-89
2024/03/08 01:25:57;;;;;;;0.10;0.10;;;;;;;;;;5009860;28;20062;-89
2024/03/08 01:28:26;;;;;;;0.10;0.10;;;1.40;99.90;;;;;;5005475;28;20504;-88
2024/03/08 01:30:55;;;;;;;0.10;0.10;;;;;;;;;;5003608;28;20485;-89
2024/03/08 01:33:25;;;;;;;0.10;0.10;;;1.30;99.90;;;;;;5009502;28;20026;-88
2024/03/08 01:35:51;;;;;;;0.10;0.10;;;;;;;;;;5006966;28;20030;-88
2024/03/08 01:38:17;;;;;;;0.08;0.08;;;;;;;;;;5004555;28;20042;-89
2024/03/08 01:40:43;;;;;;;0.10;0.10;;;1.30;99.90;;;;;;5008727;28;20040;-89
2024/03/08 01:43:22;;;;;;;0.03;0.03;;;1.40;99.90;;;;;;5003099;28;20393;-88
2024/03/08 01:45:48;;;;;;;0.00;0.00;;;;;;;;;;5004408;28;20030;-90
2024/03/08 01:48:17;;;;;;;0.10;0.10;;;1.30;99.90;;;;;;5007627;28;21799;-87
2024/03/08 01:50:43;;;;;;;0.10;0.10;;;;;;;;;;5008546;28;20022;-89
2024/03/08 01:53:12;;;;;;;0.10;0.10;;;1.30;99.90;;;;;;5009159;28;20045;-89
2024/03/08 01:55:38;;;;;;;0.10;0.10;;;1.30;99.90;;;;;;5006611;28;20520;-89
2024/03/08 01:58:09;;;;;;;0.08;0.08;;;1.30;99.90;;;;;;5006970;28;20558;-88
2024/03/08 02:00:36;;;;;;;0.10;0.10;;;;;;;;;;5007043;28;20026;-88
2024/03/08 02:03:02;;;;;;;0.10;0.10;;;;;;;;;;5009605;28;20080;-89
2024/03/08 02:05:28;;;;;;;0.05;0.05;;;;;;;;;;5007127;28;20026;-88
2024/03/08 02:07:54;;;;;;;0.00;0.00;;;;;;;;;;5005717;28;20037;-88
2024/03/08 02:10:22;;;;;;;0.10;0.10;;;;;;;;;;5003677;28;20045;-89
2024/03/08 02:12:48;;;;;;;0.03;0.03;;;;;;;;;;5005160;28;20022;-89
2024/03/08 02:15:14;;;;;;;0.10;0.10;;;;;;;;;;5003703;28;20408;-89
2024/03/08 02:17:41;;;;;;;0.10;0.10;;;;;;;;;;5004619;28;20026;-89
2024/03/08 02:20:08;;;;;;;0.00;0.00;;;1.40;99.90;;;;;;5005686;28;20121;-87
2024/03/08 02:22:35;;;;;;;0.10;0.10;;;;;;;;;;5005100;28;20408;-87
2024/03/08 02:25:03;;;;;;;0.00;0.00;;;1.20;99.90;;;;;;5004761;28;20034;-87
2024/03/08 02:27:29;;;;;;;0.00;0.00;;;;;;;;;;5004777;28;20073;-88
2024/03/08 02:29:56;;;;;;;0.00;0.00;;;;;;;;;;5003691;28;20026;-88
2024/03/08 02:32:24;;;;;;;0.00;0.00;;;1.20;99.90;;;;;;5005783;28;20146;-88
2024/03/08 02:34:50;;;;;;;0.03;0.03;;;;;;;;;;5002156;28;20034;-88
2024/03/08 02:37:17;;;;;;;0.05;0.05;;;1.20;99.90;;;;;;5007134;28;20065;-88
2024/03/08 02:39:43;;;;;;;0.00;0.00;;;;;;;;;;5006739;28;20508;-88
2024/03/08 02:42:09;;;;;;;0.10;0.10;;;;;;;;;;5007553;28;20508;-88
2024/03/08 02:44:34;;;;;;;0.00;0.00;;;1.20;99.90;;;;;;5009321;28;20058;-87
2024/03/08 02:47:00;;;;;;;0.10;0.10;;;;;;;;;;5005433;28;20038;-88
2024/03/08 02:49:27;;;;;;;0.05;0.05;;;;;;;;;;5007371;28;20030;-88
2024/03/08 02:51:57;;;;;;;0.10;0.10;;;1.10;99.90;;;;;;5006266;28;20088;-87
2024/03/08 02:54:22;;;;;;;;;;;1.00;99.90;;;;;;5007000;28;20030;-88
2024/03/08 02:56:50;;;;;;;0.10;0.10;;;;;;;;;;5008547;28;20434;-88
2024/03/08 02:59:17;;;;;;;0.00;0.00;;;;;;;;;;5007721;28;20033;-88
2024/03/08 03:01:43;;;;;;;0.10;0.10;;;;;;;;;;5008049;28;20076;-88
2024/03/08 03:04:09;;;;;;;0.10;0.10;;;;;;;;;;5007337;28;20037;-88
2024/03/08 03:06:35;;;;;;;0.10;0.10;;;;;;;;;;5007379;28;20407;-88
2024/03/08 03:09:01;;;;;;;0.03;0.03;;;;;;;;;;5004055;28;20036;-88
2024/03/08 03:11:27;;;;;;;0.10;0.10;;;;;;;;;;5009445;28;20064;-88
2024/03/08 03:13:53;;;;;;;0.10;0.10;;;;;;;;;;5006357;28;20488;-89
2024/03/08 03:16:19;;;;;;;0.10;0.10;;;0.90;99.90;;;;;;5005643;28;20022;-88
2024/03/08 03:18:45;;;;;;;0.10;0.10;;;;;;;;;;5011665;28;20416;-88
2024/03/08 03:21:13;;;;;;;0.10;0.10;;;;;;;;;;5011920;28;20049;-88
2024/03/08 03:23:39;;;;;;;0.00;0.00;;;;;;;;;;5010074;28;20053;-88
2024/03/08 03:26:07;;;;;;;0.10;0.10;;;;;;;;;;5011066;28;20457;-88
2024/03/08 03:28:33;;;;;;;0.10;0.10;;;;;;;;;;5003802;28;20041;-89
2024/03/08 03:30:59;;;;;;;0.10;0.10;;;;;;;;;;5009252;28;20026;-88
2024/03/08 03:33:25;;;;;;;0.10;0.10;;;;;;;;;;5005898;28;20026;-88
2024/03/08 03:35:52;;;;;;;0.10;0.10;;;;;;;;;;5009643;28;20022;-88
2024/03/08 03:38:19;;;;;;;0.10;0.10;;;;;;;;;;5003240;28;20117;-87
2024/03/08 03:40:46;;;;;;;0.10;0.10;;;;;;;;;;5007102;28;20054;-88
2024/03/08 03:43:12;;;;;;;0.10;0.10;;;;;;;;;;5010800;28;20116;-87
2024/03/08 03:45:38;;;;;;;0.10;0.10;;;;;;;;;;5009670;28;20042;-87
2024/03/08 03:48:08;;;;;;;0.10;0.10;;;1.00;99.90;;;;;;5012949;28;20034;-88
2024/03/08 03:50:34;;;;;;;0.10;0.10;;;;;;;;;;5008888;28;20411;-88
2024/03/08 03:53:00;;;;;;;0.10;0.10;;;1.10;99.90;;;;;;5009527;28;20030;-89
2024/03/08 03:55:26;;;;;;;0.10;0.10;;;;;;;;;;5002138;28;20030;-87
2024/03/08 03:57:53;;;;;;;0.10;0.10;;;;;;;;;;5008375;28;20125;-88
2024/03/08 04:00:19;;;;;;;0.10;0.10;;;;;;;;;;5008054;28;20026;-88
2024/03/08 04:02:44;;;;;;;0.00;0.00;;;;;;;;;;5008268;28;20026;-89
2024/03/08 04:05:11;;;;;;;0.10;0.10;;;0.90;99.90;;;;;;5009298;28;20056;-88
2024/03/08 04:07:37;;;;;;;0.00;0.00;;;0.90;99.90;;;;;;5007669;28;20083;-88
2024/03/08 04:12:37;;;;;;;0.10;0.10;;;;;;;;;;4996222;28;20479;-91
2024/03/08 04:15:03;;;;;;;0.10;0.10;;;;;;;;;;5027916;28;20022;-91
2024/03/08 04:17:29;;;;;;;0.10;0.10;;;;;;;;;;5027810;28;20040;-91
2024/03/08 04:19:55;;;;;;;0.10;0.10;;;;;;;;;;5030281;28;20061;-91
2024/03/08 04:22:21;;;;;;;0.10;0.10;;;;;;;;;;5027950;28;20360;-92
2024/03/08 04:24:47;;;;;;;0.00;0.00;;;;;;;;;;5028298;28;20030;-91
2024/03/08 04:27:14;;;;;;;0.10;0.10;;;;;;;;;;5025152;28;20034;-91
2024/03/08 04:29:41;;;;;;;0.10;0.10;;;;;;;;;;5013572;28;20041;-92
2024/03/08 04:32:08;;;;;;;0.10;0.10;;;;;;;;;;5002781;28;20029;-92
2024/03/08 04:34:34;;;;;;;0.10;0.10;;;;;;;;;;5020020;28;20547;-91
2024/03/08 04:37:04;;;;;;;0.10;0.10;;;;;;;;;;5027740;28;20039;-91
2024/03/08 04:39:31;;;;;;;0.10;0.10;;;;;;;;;;5028133;28;20030;-92
2024/03/08 04:42:06;;;;;;;0.03;0.03;;;0.80;99.90;;;;;;5029274;28;20128;-91
2024/03/08 04:44:35;;;;;;;0.03;0.03;;;;;;;;;;5000059;28;20046;-92
2024/03/08 04:47:01;;;;;;;0.08;0.08;;;;;;;;;;4987824;28;20030;-92
2024/03/08 04:49:28;;;;;;;0.10;0.10;;;;;;;;;;4995592;28;20029;-93
2024/03/08 04:51:54;;;;;;;0.00;0.00;;;;;;;;;;5024349;28;20019;-93
2024/03/08 04:54:20;;;;;;;0.10;0.10;;;;;;;;;;5026591;28;20038;-92
2024/03/08 04:56:46;;;;;;;0.08;0.08;;;;;;;;;;5020962;28;20026;-93
2024/03/08 04:59:12;;;;;;;0.08;0.08;;;;;;;;;;5023841;28;20073;-92
2024/03/08 05:01:38;;;;;;;0.00;0.00;;;;;;;;;;5029318;28;20034;-93
2024/03/08 05:04:05;;;;;;;0.00;0.00;;;;;;;;;;5024783;28;20034;-93
2024/03/08 05:06:31;;;;;;;0.00;0.00;;;;;;;;;;5025527;28;20080;-92
2024/03/08 05:08:57;;;;;;;0.10;0.10;;;;;;;;;;5008740;28;20038;-92
2024/03/08 05:11:23;;;;;;;0.10;0.10;;;;;;;;;;5015361;28;20089;-92
2024/03/08 05:13:49;;;;;;;0.10;0.10;;;;;;;;;;5028591;28;20393;-92
2024/03/08 05:16:15;;;;;;;0.10;0.10;;;;;;;;;;5027795;28;20037;-93
2024/03/08 05:18:42;;;;;;;0.10;0.10;;;;;;;;;;5027128;28;20026;-93
2024/03/08 05:21:09;;;;;;;0.10;0.10;;;;;;;;;;5028157;28;20034;-92
2024/03/08 05:23:35;;;;;;;0.10;0.10;;;;;;;;;;5030074;28;20026;-93
2024/03/08 05:26:01;;;;;;;0.03;0.03;;;;;;;;;;5006276;28;20038;-92
2024/03/08 05:28:27;;;;;;;0.10;0.10;;;;;;;;;;5000529;28;20534;-92
2024/03/08 05:30:55;;;;;;;0.10;0.10;;;;;;;;;;4995031;28;20026;-92
2024/03/08 05:33:23;;;;;;;0.00;0.00;;;;;;;;;;5027421;28;20026;-92
2024/03/08 05:35:49;;;;;;;0.10;0.10;;;;;;;;;;5005131;28;20022;-91
2024/03/08 05:38:15;;;;;;;0.10;0.10;;;;;;;;;;5036686;28;20389;-92
2024/03/08 05:40:43;;;;;;;0.00;0.00;;;;;;;;;;5003958;28;20026;-92
2024/03/08 05:43:09;;;;;;;0.00;0.00;;;;;;;;;;5024594;28;20064;-92
2024/03/08 05:45:35;;;;;;;0.10;0.10;;;;;;;;;;5027391;28;20117;-92
2024/03/08 05:48:01;;;;;;;0.10;0.10;;;;;;;;;;4997749;28;20515;-93
2024/03/08 05:50:27;;;;;;;0.00;0.00;;;;;;;;;;5029716;28;20034;-93
2024/03/08 05:52:53;;;;;;;0.03;0.03;;;;;;;;;;4997689;28;20026;-92
2024/03/08 05:55:19;;;;;;;0.10;0.10;;;;;;;;;;4997290;28;20490;-93
2024/03/08 05:57:45;;;;;;;0.00;0.00;;;;;;;;;;5026970;28;20114;-92
2024/03/08 06:00:18;;;;;;;0.08;0.08;;;;;;;;;;5000254;28;20049;-92
2024/03/08 06:02:55;;;;;;;0.00;0.00;;;0.60;99.90;;;;;;5026831;28;20077;-92
2024/03/08 06:05:23;;;;;;;0.10;0.10;;;;;;;;;;5026113;28;20062;-93
2024/03/08 06:07:53;;;;;;;0.10;0.10;;;;;;;;;;4995128;28;20054;-93
2024/03/08 06:10:22;;;;;;;0.10;0.10;;;;;;;;;;5000678;28;20022;-92
2024/03/08 06:13:08;;;;;;;0.10;0.10;;;;;;;;;;5035334;28;20033;-92
2024/03/08 06:15:34;;;;;;;0.10;0.10;;;;;;;;;;4998321;28;20027;-92
2024/03/08 06:18:20;;;;;;;0.10;0.10;;;;;;;;;;5001881;28;20039;-92
2024/03/08 06:21:16;;;;;;;0.10;0.10;;;0.80;99.90;;;;;;5003418;28;20041;-92
2024/03/08 06:23:54;;;;;;;0.10;0.10;;;0.90;99.90;;;;;;5000069;28;20049;-92
2024/03/08 06:26:37;;;;;;;0.10;0.10;;;0.90;99.90;;;;;;4996730;28;20030;-92
2024/03/08 06:29:15;;;;;;;0.10;0.10;;;0.90;99.90;;;;;;4999338;28;20399;-92
2024/03/08 06:34:35;;;;;;;0.10;0.10;;;1.10;99.90;;;;;;5002402;28;20124;-92
2024/03/08 06:40:47;;;;;;;0.10;0.10;;;;;;;;;;5016601;28;20054;-92
2024/03/08 06:49:19;;;;;;;0.10;0.10;;;;;;;;;;5001207;28;20061;-92
2024/03/08 06:51:48;;;;;;;0.10;0.10;;;;;;;;;;5007696;28;20061;-92
2024/03/08 06:54:20;;;;;;;0.10;0.10;;;;;;;;;;5005019;28;20100;-92
2024/03/08 06:56:48;;;;;;;0.10;0.10;;;;;;;;;;5035946;28;20362;-92
2024/03/08 06:59:17;;;;;;;0.10;0.10;;;;;;;;;;5029263;28;20049;-92
2024/03/08 07:02:04;;;;;;;0.10;0.10;;;;;;;;;;4998307;28;20030;-92
2024/03/08 07:04:29;;;;;;;0.00;0.00;;;;;;;;;;5031485;28;20034;-92
2024/03/08 07:06:57;;;;;;;0.00;0.00;;;;;;;;;;5007569;28;20034;-92
2024/03/08 07:09:24;;;;;;;0.10;0.10;;;;;;;;;;5003140;28;20022;-92
2024/03/08 07:11:54;;;;;;;0.10;0.10;;;;;;;;;;5037297;28;20037;-92
2024/03/08 07:14:23;;;;;;;;;;;1.20;99.90;;;;;;5004536;28;20397;-92
2024/03/08 07:16:49;;;;;;;0.05;0.05;;;;;;;;;;5010772;28;19912;-92
2024/03/08 07:19:16;;;;;;;0.00;0.00;;;;;;;;;;5035317;28;20026;-92
2024/03/08 07:21:47;;;;;;;0.10;0.10;;;;;;;;;;5003659;28;20026;-93
2024/03/08 07:26:43;;;;;;;0.10;0.10;;;;;;;;;;5001957;28;20023;-92
2024/03/08 07:29:09;;;;;;;0.00;0.00;;;;;;;;;;5018625;28;20125;-92
2024/03/08 07:31:50;;;;;;;0.10;0.10;;;;;;;;;;5032104;28;20101;-92
2024/03/08 07:34:16;;;;;;;0.10;0.10;;;;;;;;;;5004368;28;20526;-92
2024/03/08 07:36:42;;;;;;;0.00;0.00;;;;;;;;;;5034102;28;20037;-93
2024/03/08 07:39:11;;;;;;;0.10;0.10;;;;;;;;;;5004144;28;20032;-92
2024/03/08 07:41:39;;;;;;;0.00;0.00;;;;;;;;;;5007269;28;20065;-93
2024/03/08 07:44:06;;;;;;;0.10;0.10;;;;;;;;;;5030429;28;20030;-93
2024/03/08 07:46:33;;;;;;;0.00;0.00;;;;;;;;;;5003393;28;20026;-93
2024/03/08 07:49:00;;;;;;;0.00;0.00;;;;;;;;;;5001803;28;20023;-93
2024/03/08 07:51:29;;;;;;;0.10;0.10;;;;;;;;;;4987248;28;20065;-92
2024/03/08 07:53:55;;;;;;;0.00;0.00;;;;;;;;;;5016200;28;20034;-92
2024/03/08 07:56:21;;;;;;;0.10;0.10;;;;;;;;;;5001928;28;20261;-93
2024/03/08 07:58:48;;;;;;;0.10;0.10;;;;;;;;;;5003264;28;20109;-92
2024/03/08 08:01:18;;;;;;;0.10;0.10;;;;;;;;;;5034516;28;20575;-92
2024/03/08 08:03:44;;;;;;;;;;;2.20;99.90;;;;;;5032198;28;20474;-93
2024/03/08 08:06:15;;;;;;;0.10;0.10;;;;;;;;;;5001378;28;19948;-92
2024/03/08 08:08:42;;;;;;;0.10;0.10;;;;;;;;;;5000491;28;20022;-92
2024/03/08 08:11:08;;;;;;;0.00;0.00;;;;;;;;;;5008354;28;20034;-92
2024/03/08 08:13:36;;;;;;;0.10;0.10;;;;;;;;;;5033359;28;20146;-93
2024/03/08 08:16:02;;;;;;;0.10;0.10;;;;;;;;;;5027949;28;20058;-92
2024/03/08 08:18:29;;;;;;;0.10;0.10;;;;;;;;;;5000344;28;20030;-92
2024/03/08 08:20:55;;;;;;;0.10;0.10;;;;;;;;;;5007843;28;20093;-92
2024/03/08 08:23:21;;;;;;;0.10;0.10;;;;;;;;;;5034344;28;20026;-93
2024/03/08 08:25:51;;;;;;;0.03;0.03;;;;;;;;;;4999343;28;20034;-92
2024/03/08 08:28:17;;;;;;;0.10;0.10;;;;;;;;;;5000201;28;20034;-92
2024/03/08 08:30:46;;;;;;;0.10;0.10;;;;;;;;;;5010085;28;20093;-93
2024/03/08 08:33:13;;;;;;;0.10;0.10;;;;;;;;;;5011662;28;20113;-93
2024/03/08 08:35:39;;;;;;;0.10;0.10;;;;;;;;;;5031894;28;20105;-92
2024/03/08 08:38:07;;;;;;;0.10;0.10;;;;;;;;;;4999386;28;20034;-92
2024/03/08 08:40:33;;;;;;;0.00;0.00;;;;;;;;;;5027319;28;20031;-91
2024/03/08 08:43:26;;;;;;;0.10;0.10;;;3.40;99.90;;;;;;5030723;28;20132;-92
2024/03/08 08:45:54;;;;;;;0.10;0.10;;;;;;;;;;5008315;28;20401;-92
2024/03/08 08:48:20;;;;;;;0.00;0.00;;;;;;;;;;5003431;28;20030;-92
2024/03/08 08:50:46;;;;;;;0.10;0.10;;;;;;;;;;5034736;28;20121;-93
2024/03/08 08:53:14;;;;;;;0.10;0.10;;;;;;;;;;5032152;28;20022;-93
2024/03/08 08:55:40;;;;;;;0.00;0.00;;;;;;;;;;5032046;28;20030;-92
2024/03/08 08:58:07;;;;;;;0.10;0.10;;;;;;;;;;5031891;28;20121;-92
2024/03/08 09:00:34;;;;;;;0.05;0.05;;;;;;;;;;4998375;28;20040;-93
2024/03/08 09:03:02;;;;;;;0.10;0.10;;;;;;;;;;5032643;28;20048;-93
2024/03/08 09:05:28;;;;;;;0.10;0.10;;;;;;;;;;5006030;28;20022;-92
2024/03/08 09:07:54;;;;;;;0.10;0.10;;;;;;;;;;5035408;28;20026;-92
2024/03/08 09:10:21;;;;;;;0.10;0.10;;;;;;;;;;5033129;28;20542;-93
2024/03/08 09:12:47;;;;;;;0.10;0.10;;;;;;;;;;5027182;28;20145;-93
2024/03/08 09:15:13;;;;;;;0.10;0.10;;;;;;;;;;4997755;28;20142;-92
2024/03/08 09:17:44;;;;;;;0.10;0.10;;;;;;;;;;4998216;28;20057;-92
2024/03/08 09:20:14;;;;;;;0.10;0.10;;;;;;;;;;5033997;28;20408;-92
2024/03/08 09:22:40;;;;;;;;;;;4.00;99.90;;;;;;5000527;28;20050;-93
2024/03/08 09:25:07;;;;;;;0.00;0.00;;;;;;;;;;4997704;28;20455;-92
2024/03/08 09:27:33;;;;;;;0.05;0.05;;;;;;;;;;4998934;28;20104;-93
2024/03/08 09:30:00;;;;;;;0.10;0.10;;;;;;;;;;4997900;28;20022;-93
2024/03/08 09:32:26;;;;;;;0.00;0.00;;;;;;;;;;4994866;28;20059;-93
2024/03/08 09:34:52;;;;;;;0.10;0.10;;;;;;;;;;5026484;28;20019;-94
2024/03/08 09:37:18;;;;;;;0.10;0.10;;;;;;;;;;4979637;28;20048;-93
2024/03/08 09:39:45;;;;;;;0.10;0.10;;;;;;;;;;5001587;28;20488;-92
2024/03/08 09:42:14;;;;;;;0.00;0.00;;;;;;;;;;4995809;28;20026;-93
2024/03/08 09:44:44;;;;;;;0.10;0.10;;;;;;;;;;5021609;28;20034;-93
2024/03/08 09:47:13;;;;;;;0.03;0.03;;;;;;;;;;4991325;28;20027;-92
2024/03/08 09:49:40;;;;;;;0.10;0.10;;;;;;;;;;5022169;28;20114;-92
2024/03/08 09:52:07;;;;;;;0.10;0.10;;;;;;;;;;5018021;28;20018;-93
2024/03/08 09:54:33;;;;;;;0.00;0.00;;;;;;;;;;4993651;28;20029;-93
2024/03/08 09:56:59;;;;;;;0.10;0.10;;;;;;;;;;5023729;28;20413;-93
2024/03/08 10:01:52;;;;;;;0.00;0.00;;;;;;;;;;5005440;28;20053;-92
2024/03/08 10:04:19;;;;;;;0.10;0.10;;;;;;;;;;4991873;28;20382;-93
2024/03/08 10:06:47;;;;;;;0.10;0.10;;;;;;;;;;4990416;28;20049;-94
2024/03/08 10:09:13;;;;;;;0.10;0.10;;;;;;;;;;5008969;28;20029;-93
2024/03/08 10:24:29;;;;;;;0.10;0.10;;;;;;;;;;4995679;28;20054;-88
2024/03/08 10:27:05;;;;;;;0.03;0.03;;;5.70;99.90;;;;;;5033668;28;20023;-89
2024/03/08 10:29:34;;;;;;;0.10;0.10;;;5.90;99.90;;;;;;4993685;28;20500;-86
2024/03/08 10:32:01;;;;;;;0.10;0.10;;;6.00;99.90;;;;;;4995688;28;20029;-87
2024/03/08 10:34:29;;;;;;;0.10;0.10;;;;;;;;;;4991840;28;20500;-88
2024/03/08 10:37:02;;;;;;;0.10;0.10;;;6.00;99.90;;;;;;5011157;28;20105;-89
2024/03/08 10:39:37;;;;;;;0.00;0.00;;;6.10;99.90;;;;;;5024423;28;20023;-90
2024/03/08 10:42:04;;;;;;;0.10;0.10;;;6.30;99.90;;;;;;4998422;28;20113;-89
2024/03/08 10:44:30;;;;;;;0.10;0.10;;;;;;;;;;4993033;28;20040;-89
2024/03/08 10:46:56;;;;;;;0.10;0.10;;;;;;;;;;4992697;28;20018;-90
2024/03/08 10:49:28;;;;;;;0.10;0.10;;;6.20;99.90;;;;;;5000686;28;20028;-89
2024/03/08 10:51:55;;;;;;;0.10;0.10;;;;;;;;;;4999588;28;20023;-89
2024/03/08 10:54:21;;;;;;;0.10;0.10;;;;;;;;;;4996977;28;20023;-89
2024/03/08 10:56:49;;;;;;;0.10;0.10;;;6.30;99.90;;;;;;5012697;28;20069;-89
2024/03/08 10:59:17;;;;;;;0.10;0.10;;;8.10;99.90;;;;;;4984434;28;20519;-87
2024/03/08 11:01:43;;;;;;;0.00;0.00;;;;;;;;;;4993800;28;20054;-89
2024/03/08 11:04:09;;;;;;;0.10;0.10;;;;;;;;;;4996678;28;20045;-90
2024/03/08 11:06:37;;;;;;;0.10;0.10;;;;;;;;;;4996470;28;20651;-89
2024/03/08 11:09:04;;;;;;;0.08;0.08;;;;;;;;;;4995919;28;20038;-89
2024/03/08 11:11:32;;;;;;;0.10;0.10;;;6.60;99.90;;;;;;4997632;28;20068;-89
2024/03/08 11:13:58;;;;;;;0.00;0.00;;;;;;;;;;4996279;28;20076;-89
2024/03/08 11:16:35;;;;;;;0.10;0.10;;;;;;;;;;5033610;28;20112;-90
2024/03/08 11:19:05;;;;;;;0.10;0.10;;;7.00;99.90;;;;;;4994804;28;20176;-88
2024/03/08 11:21:33;;;;;;;0.10;0.10;;;;;;;;;;4995905;28;20490;-88
2024/03/08 11:24:13;;;;;;;0.10;0.10;;;6.90;99.90;;;;;;4997917;28;20519;-89
2024/03/08 11:26:39;;;;;;;0.10;0.10;;;;;;;;;;4996914;28;20044;-87
2024/03/08 11:29:35;;;;;;;0.10;0.10;;;7.20;99.90;;;;;;4995479;28;20034;-90
2024/03/08 11:32:05;;;;;;;0.08;0.08;;;;;;;;;;5013902;28;20036;-89
2024/03/08 11:34:32;;;;;;;0.10;0.10;;;7.20;99.90;;;;;;5015767;28;20392;-90
2024/03/08 11:36:59;;;;;;;0.10;0.10;;;;;;;;;;4991912;28;20034;-87
2024/03/08 11:39:25;;;;;;;0.10;0.10;;;7.30;99.90;;;;;;5028533;28;20109;-89
2024/03/08 11:41:51;;;;;;;0.10;0.10;;;;;;;;;;4993954;28;20030;-86
2024/03/08 11:44:18;;;;;;;0.10;0.10;;;;;;;;;;5024242;28;20310;-89
2024/03/08 11:46:47;;;;;;;0.10;0.10;;;;;;;;;;4995021;28;20038;-88
2024/03/08 11:49:14;;;;;;;0.10;0.10;;;;;;;;;;4995643;28;20425;-88
2024/03/08 11:51:41;;;;;;;0.00;0.00;;;;;;;;;;4991783;28;20033;-89
2024/03/08 11:54:07;;;;;;;0.10;0.10;;;;;;;;;;4991388;28;20026;-89
2024/03/08 11:56:34;;;;;;;0.10;0.10;;;;;;;;;;5023341;28;20018;-89
2024/03/08 11:59:01;;;;;;;0.10;0.10;;;;;;;;;;4989850;28;20385;-89
2024/03/08 12:01:27;;;;;;;0.10;0.10;;;;;;;;;;4987453;28;20030;-88
2024/03/08 12:03:58;;;;;;;0.10;0.10;;;7.70;99.90;;;;;;4982116;28;20098;-88
2024/03/08 12:06:25;;;;;;;0.10;0.10;;;;;;;;;;5013013;28;20027;-88
2024/03/08 12:08:51;;;;;;;0.10;0.10;;;;;;;;;;5002165;28;20160;-89
2024/03/08 12:11:23;;;;;;;0.03;0.03;;;7.90;99.90;;;;;;5001834;28;20235;-88
2024/03/08 12:13:51;;;;;;;0.10;0.10;;;;;;;;;;4983275;28;20026;-89
2024/03/08 12:16:23;;;;;;;0.10;0.10;;;8.20;99.90;;;;;;4985640;28;20026;-89
2024/03/08 12:18:49;;;;;;;0.00;0.00;;;;;;;;;;4993861;28;20484;-89
2024/03/08 12:21:19;;;;;;;0.10;0.10;;;;;;;;;;4997929;28;20100;-89
2024/03/08 12:23:45;;;;;;;0.10;0.10;;;;;;;;;;5026592;28;20030;-88
2024/03/08 12:26:14;;;;;;;0.10;0.10;;;8.50;99.90;;;;;;5010557;28;20026;-90
2024/03/08 12:28:40;;;;;;;0.10;0.10;;;8.30;99.90;;;;;;4994092;28;20041;-89
2024/03/08 12:31:11;;;;;;;0.10;0.10;;;8.40;99.90;;;;;;4996553;28;20528;-89
2024/03/08 12:33:58;;;;;;;0.10;0.10;;;8.50;99.70;;;;;;4994438;28;20552;-89
2024/03/08 12:36:25;;;;;;;0.10;0.10;;;8.60;99.90;;;;;;4994876;28;20401;-89
2024/03/08 12:38:51;;;;;;;0.10;0.10;;;;;;;;;;4996840;28;20022;-89
2024/03/08 12:41:18;;;;;;;0.03;0.03;;;8.60;99.90;;;;;;5027457;28;20030;-89
2024/03/08 12:43:48;;;;;;;0.10;0.10;;;;;;;;;;4990571;28;20034;-89
2024/03/08 12:46:14;;;;;;;0.10;0.10;;;8.70;99.50;;;;;;4993484;28;20125;-88
2024/03/08 12:48:40;;;;;;;0.10;0.10;;;;;;;;;;4992047;28;20026;-89
2024/03/08 12:51:08;;;;;;;0.10;0.10;;;;;;;;;;4994819;28;20080;-89
2024/03/08 12:53:34;;;;;;;0.10;0.10;;;;;;;;;;4998733;28;20022;-89
2024/03/08 12:56:00;;;;;;;0.10;0.10;;;;;;;;;;4994750;28;20123;-89
2024/03/08 12:58:26;;;;;;;0.10;0.10;;;;;;;;;;4994545;28;20109;-88
2024/03/08 13:00:52;;;;;;;0.10;0.10;;;;;;;;;;4993615;28;20026;-89
2024/03/08 13:03:18;;;;;;;0.10;0.10;;;;;;;;;;4996120;28;20041;-89
2024/03/08 13:05:45;;;;;;;0.10;0.10;;;;;;;;;;4994267;28;20520;-89
2024/03/08 13:08:14;;;;;;;0.10;0.10;;;;;;;;;;4993035;28;20121;-89
2024/03/08 13:10:43;;;;;;;0.10;0.10;;;;;;;;;;5027653;28;20031;-90
2024/03/08 13:13:09;;;;;;;0.10;0.10;;;;;;;;;;5009091;28;20031;-90
2024/03/08 13:15:35;;;;;;;0.10;0.10;;;;;;;;;;4993819;28;20015;-90
2024/03/08 13:18:01;;;;;;;0.10;0.10;;;;;;;;;;4994171;28;20065;-89
2024/03/08 13:20:28;;;;;;;0.10;0.10;;;;;;;;;;5022407;28;20041;-89
2024/03/08 13:22:55;;;;;;;0.10;0.10;;;;;;;;;;5026503;28;20050;-87
2024/03/08 13:25:21;;;;;;;0.10;0.10;;;;;;;;;;5006734;28;20029;-90
2024/03/08 13:27:47;;;;;;;0.08;0.08;;;;;;;;;;4994527;28;20030;-89
2024/03/08 13:30:13;;;;;;;0.10;0.10;;;;;;;;;;4994078;28;20034;-90
2024/03/08 13:32:43;;;;;;;0.10;0.10;;;;;;;;;;5025564;28;20038;-89
2024/03/08 13:35:12;;;;;;;0.10;0.10;;;9.00;99.90;;;;;;4993728;28;20030;-89
2024/03/08 13:37:41;;;;;;;0.10;0.10;;;;;;;;;;4988560;28;20022;-90
2024/03/08 13:40:10;;;;;;;0.05;0.05;;;;;;;;;;4993263;28;20285;-90
2024/03/08 13:42:38;;;;;;;0.10;0.10;;;;;;;;;;5029746;28;20754;-90
2024/03/08 13:45:04;;;;;;;0.10;0.10;;;;;;;;;;4993891;28;20038;-90
2024/03/08 13:47:31;;;;;;;0.10;0.10;;;;;;;;;;5005921;28;20025;-91
2024/03/08 13:49:57;;;;;;;0.10;0.10;;;;;;;;;;4994480;28;20029;-88
2024/03/08 13:52:24;;;;;;;0.10;0.10;;;;;;;;;;5021649;28;20027;-91
2024/03/08 13:54:51;;;;;;;0.10;0.10;;;;;;;;;;5005826;28;20033;-88
2024/03/08 13:57:18;;;;;;;0.10;0.10;;;;;;;;;;4990733;28;20085;-89
2024/03/08 13:59:44;;;;;;;0.10;0.10;;;;;;;;;;4989336;28;20089;-89
2024/03/08 14:02:13;;;;;;;0.08;0.08;;;;;;;;;;4990787;28;20045;-89
2024/03/08 14:04:41;;;;;;;0.00;0.00;;;;;;;;;;4988986;28;20085;-88
2024/03/08 14:07:08;;;;;;;0.10;0.10;;;;;;;;;;5017512;28;20334;-89
2024/03/08 14:09:37;;;;;;;0.10;0.10;;;;;;;;;;5019178;28;20030;-90
2024/03/08 14:12:06;;;;;;;0.07;0.07;;;;;;;;;;5002608;28;20036;-87
2024/03/08 14:14:34;;;;;;;0.10;0.10;;;;;;;;;;4993003;28;20493;-90
2024/03/08 14:17:01;;;;;;;0.08;0.08;;;;;;;;;;4989693;28;20033;-87
2024/03/08 14:19:27;;;;;;;0.10;0.10;;;;;;;;;;5022511;28;20018;-90
2024/03/08 14:21:53;;;;;;;0.10;0.10;;;;;;;;;;4990031;28;20030;-88
2024/03/08 14:24:19;;;;;;;0.00;0.00;;;;;;;;;;4991194;28;20375;-88
2024/03/08 14:26:48;;;;;;;0.03;0.03;;;;;;;;;;4990142;28;20026;-88
2024/03/08 14:29:14;;;;;;;0.10;0.10;;;;;;;;;;4990912;28;20034;-89
2024/03/08 14:31:41;;;;;;;0.10;0.10;;;;;;;;;;5021656;28;20320;-88
2024/03/08 14:34:07;;;;;;;0.10;0.10;;;;;;;;;;5017174;28;20130;-90
2024/03/08 14:36:33;;;;;;;0.10;0.10;;;;;;;;;;5005455;28;20023;-89
2024/03/08 14:38:59;;;;;;;0.10;0.10;;;;;;;;;;4991236;28;20511;-89
2024/03/08 14:41:26;;;;;;;0.10;0.10;;;;;;;;;;5022798;28;20038;-88
2024/03/08 14:43:53;;;;;;;0.10;0.10;;;;;;;;;;4990399;28;20109;-90
2024/03/08 14:46:23;;;;;;;0.10;0.10;;;;;;;;;;4989261;28;20081;-89
2024/03/08 14:48:51;;;;;;;;;;;9.60;99.90;;;;;;5005790;28;20520;-89
2024/03/08 14:51:19;;;;;;;0.10;0.10;;;;;;;;;;4990586;28;19925;-89
2024/03/08 14:53:45;;;;;;;0.10;0.10;;;;;;;;;;5003888;28;20030;-90
2024/03/08 14:56:16;;;;;;;0.00;0.00;;;;;;;;;;4984610;28;20108;-90
2024/03/08 14:58:43;;;;;;;0.00;0.00;;;9.40;99.90;;;;;;4989265;28;20109;-90